createdAt,value
2023-04-25T00:00:09.258Z,34.26
2023-04-25T00:00:39.335Z,34.30
2023-04-25T00:01:09.416Z,34.20
2023-04-25T00:01:39.495Z,34.23
2023-04-25T00:02:09.720Z,34.24
2023-04-25T00:02:39.712Z,34.20
2023-04-25T00:03:09.771Z,34.21
2023-04-25T00:03:39.874Z,34.22
2023-04-25T00:04:09.896Z,34.24
2023-04-25T00:04:40.264Z,34.27
2023-04-25T00:05:09.851Z,34.23
2023-04-25T00:05:39.908Z,34.24
2023-04-25T00:06:09.891Z,34.25
2023-04-25T00:06:39.972Z,34.22
2023-04-25T00:07:10.053Z,34.21
2023-04-25T00:07:40.131Z,34.20
2023-04-25T00:08:10.212Z,34.19
2023-04-25T00:08:40.292Z,34.16
2023-04-25T00:09:10.348Z,34.20
2023-04-25T00:09:40.393Z,34.15
2023-04-25T00:10:10.460Z,34.20
2023-04-25T00:10:40.518Z,34.16
2023-04-25T00:11:10.548Z,34.15
2023-04-25T00:11:40.583Z,34.16
2023-04-25T00:12:10.618Z,34.16
2023-04-25T00:12:40.666Z,34.14
2023-04-25T00:13:10.710Z,34.11
2023-04-25T00:13:40.735Z,34.17
2023-04-25T00:14:10.779Z,34.16
2023-04-25T00:14:40.842Z,34.15
2023-04-25T00:15:10.867Z,34.14
2023-04-25T00:15:40.944Z,34.14
2023-04-25T00:16:11.036Z,34.20
2023-04-25T00:16:40.982Z,34.21
2023-04-25T00:17:11.024Z,34.20
2023-04-25T00:17:41.157Z,34.19
2023-04-25T00:18:11.062Z,34.20
2023-04-25T00:18:41.096Z,34.21
2023-04-25T00:19:11.152Z,34.24
2023-04-25T00:19:41.259Z,34.21
2023-04-25T00:20:11.325Z,34.22
2023-04-25T00:20:41.399Z,34.21
2023-04-25T00:21:11.477Z,34.29
2023-04-25T00:21:41.706Z,34.23
2023-04-25T00:22:11.573Z,34.28
2023-04-25T00:22:41.682Z,34.26
2023-04-25T00:23:11.750Z,34.25
2023-04-25T00:23:41.828Z,34.29
2023-04-25T00:24:11.915Z,34.25
2023-04-25T00:24:42.008Z,34.30
2023-04-25T00:25:12.085Z,34.34
2023-04-25T00:25:42.185Z,34.33
2023-04-25T00:26:12.248Z,34.31
2023-04-25T00:26:42.360Z,34.30
2023-04-25T00:27:12.426Z,34.32
2023-04-25T00:27:42.500Z,34.34
2023-04-25T00:28:12.581Z,34.33
2023-04-25T00:28:42.666Z,34.35
2023-04-25T00:29:12.744Z,34.37
2023-04-25T00:29:42.839Z,34.41
2023-04-25T00:30:12.910Z,34.36
2023-04-25T00:30:42.989Z,34.35
2023-04-25T00:31:13.115Z,34.35
2023-04-25T00:31:43.335Z,34.36
2023-04-25T00:32:13.201Z,34.37
2023-04-25T00:32:43.315Z,34.34
2023-04-25T00:33:13.471Z,34.33
2023-04-25T00:33:43.383Z,34.35
2023-04-25T00:34:13.471Z,34.34
2023-04-25T00:34:43.562Z,34.35
2023-04-25T00:35:13.659Z,34.35
2023-04-25T00:35:43.730Z,34.32
2023-04-25T00:36:13.812Z,34.35
2023-04-25T00:36:43.875Z,34.30
2023-04-25T00:37:13.960Z,34.29
2023-04-25T00:37:44.044Z,34.28
2023-04-25T00:38:14.130Z,34.27
2023-04-25T00:38:44.205Z,34.30
2023-04-25T00:39:14.281Z,34.30
2023-04-25T00:39:44.379Z,34.31
2023-04-25T00:40:14.467Z,34.28
2023-04-25T00:40:44.588Z,34.28
2023-04-25T00:41:14.639Z,34.30
2023-04-25T00:41:44.718Z,34.27
2023-04-25T00:42:14.804Z,34.31
2023-04-25T00:42:44.887Z,34.31
2023-04-25T00:43:14.971Z,34.29
2023-04-25T00:43:45.043Z,34.33
2023-04-25T00:44:15.133Z,34.29
2023-04-25T00:44:45.232Z,34.26
2023-04-25T00:45:15.303Z,34.25
2023-04-25T00:45:45.375Z,34.25
2023-04-25T00:46:15.505Z,34.27
2023-04-25T00:46:45.593Z,34.26
2023-04-25T00:47:15.557Z,34.32
2023-04-25T00:47:45.689Z,34.33
2023-04-25T00:48:15.645Z,34.32
2023-04-25T00:48:45.721Z,34.27
2023-04-25T00:49:15.802Z,34.30
2023-04-25T00:49:45.910Z,34.28
2023-04-25T00:50:15.995Z,34.29
2023-04-25T00:50:46.071Z,34.23
2023-04-25T00:51:16.152Z,34.25
2023-04-25T00:51:46.238Z,34.22
2023-04-25T00:52:16.321Z,34.30
2023-04-25T00:52:46.385Z,34.26
2023-04-25T00:53:16.475Z,34.25
2023-04-25T00:53:46.552Z,34.23
2023-04-25T00:54:16.627Z,34.18
2023-04-25T00:54:46.711Z,34.15
2023-04-25T00:55:16.914Z,34.13
2023-04-25T00:55:46.896Z,34.17
2023-04-25T00:56:16.993Z,34.14
2023-04-25T00:56:47.048Z,34.16
2023-04-25T00:57:17.137Z,34.22
2023-04-25T00:57:47.217Z,34.19
2023-04-25T00:58:17.301Z,34.15
2023-04-25T00:58:47.377Z,34.13
2023-04-25T00:59:17.464Z,34.14
2023-04-25T00:59:47.572Z,34.10
2023-04-25T01:00:17.644Z,34.11
2023-04-25T01:00:47.780Z,34.10
2023-04-25T01:01:17.774Z,34.15
2023-04-25T01:01:47.764Z,34.15
2023-04-25T01:02:47.937Z,34.14
2023-04-25T01:03:17.930Z,34.14
2023-04-25T01:03:48.105Z,34.14
2023-04-25T01:04:18.093Z,34.11
2023-04-25T01:04:47.905Z,34.09
2023-04-25T01:05:17.985Z,34.11
2023-04-25T01:05:48.061Z,34.11
2023-04-25T01:06:18.131Z,34.06
2023-04-25T01:06:48.213Z,34.03
2023-04-25T01:07:18.298Z,34.05
2023-04-25T01:07:48.374Z,34.00
2023-04-25T01:08:18.454Z,33.99
2023-04-25T01:08:48.532Z,34.05
2023-04-25T01:09:18.586Z,33.98
2023-04-25T01:09:48.643Z,33.97
2023-04-25T01:10:18.671Z,33.95
2023-04-25T01:10:48.707Z,33.97
2023-04-25T01:11:18.760Z,33.97
2023-04-25T01:11:48.782Z,33.99
2023-04-25T01:12:18.817Z,33.97
2023-04-25T01:12:48.859Z,34.01
2023-04-25T01:13:18.889Z,34.03
2023-04-25T01:13:49.266Z,33.99
2023-04-25T01:14:18.923Z,33.96
2023-04-25T01:14:48.970Z,33.99
2023-04-25T01:15:19.012Z,34.00
2023-04-25T01:15:49.040Z,34.05
2023-04-25T01:16:19.099Z,33.97
2023-04-25T01:16:49.204Z,33.99
2023-04-25T01:17:19.242Z,34.03
2023-04-25T01:17:49.350Z,34.06
2023-04-25T01:18:19.276Z,34.10
2023-04-25T01:18:49.319Z,34.06
2023-04-25T01:19:19.386Z,34.10
2023-04-25T01:19:49.473Z,34.03
2023-04-25T01:20:19.557Z,34.10
2023-04-25T01:20:49.639Z,34.08
2023-04-25T01:21:19.717Z,34.08
2023-04-25T01:21:49.801Z,34.09
2023-04-25T01:22:19.879Z,34.11
2023-04-25T01:22:49.952Z,34.09
2023-04-25T01:23:20.031Z,34.09
2023-04-25T01:23:50.321Z,34.15
2023-04-25T01:24:20.127Z,34.17
2023-04-25T01:24:50.223Z,34.16
2023-04-25T01:25:20.298Z,34.14
2023-04-25T01:25:50.371Z,34.09
2023-04-25T01:26:20.449Z,34.12
2023-04-25T01:26:50.847Z,34.11
2023-04-25T01:27:20.549Z,34.10
2023-04-25T01:28:20.659Z,34.09
2023-04-25T01:28:50.743Z,34.12
2023-04-25T01:29:20.832Z,34.13
2023-04-25T01:29:50.920Z,34.16
2023-04-25T01:30:20.994Z,34.13
2023-04-25T01:30:51.084Z,34.15
2023-04-25T01:31:21.206Z,34.10
2023-04-25T01:31:51.298Z,34.15
2023-04-25T01:32:21.447Z,34.15
2023-04-25T01:32:51.506Z,34.18
2023-04-25T01:33:21.478Z,34.14
2023-04-25T01:33:51.829Z,34.15
2023-04-25T01:34:21.627Z,34.13
2023-04-25T01:34:51.708Z,34.16
2023-04-25T01:35:21.775Z,34.20
2023-04-25T01:35:51.862Z,34.16
2023-04-25T01:36:21.944Z,34.13
2023-04-25T01:36:52.019Z,34.18
2023-04-25T01:37:22.096Z,34.17
2023-04-25T01:37:52.176Z,34.16
2023-04-25T01:38:22.261Z,34.21
2023-04-25T01:38:52.334Z,34.17
2023-04-25T01:39:22.422Z,34.17
2023-04-25T01:39:52.509Z,34.14
2023-04-25T01:40:22.628Z,34.15
2023-04-25T01:40:52.707Z,34.17
2023-04-25T01:41:24.190Z,34.16
2023-04-25T01:41:52.868Z,34.17
2023-04-25T01:42:22.930Z,34.13
2023-04-25T01:42:53.005Z,34.12
2023-04-25T01:43:23.085Z,34.09
2023-04-25T01:43:53.429Z,34.09
2023-04-25T01:44:23.229Z,34.12
2023-04-25T01:44:53.324Z,34.13
2023-04-25T01:45:23.400Z,34.10
2023-04-25T01:45:53.558Z,34.05
2023-04-25T01:46:23.551Z,34.09
2023-04-25T01:46:53.630Z,34.08
2023-04-25T01:47:23.713Z,34.08
2023-04-25T01:47:53.817Z,34.12
2023-04-25T01:48:23.808Z,34.12
2023-04-25T01:48:53.884Z,34.08
2023-04-25T01:49:23.970Z,34.10
2023-04-25T01:49:54.047Z,34.11
2023-04-25T01:50:24.141Z,34.16
2023-04-25T01:50:54.237Z,34.18
2023-04-25T01:51:24.296Z,34.13
2023-04-25T01:51:54.387Z,34.17
2023-04-25T01:52:24.467Z,34.13
2023-04-25T01:52:54.538Z,34.18
2023-04-25T01:53:24.636Z,34.17
2023-04-25T01:53:54.712Z,34.13
2023-04-25T01:54:24.785Z,34.18
2023-04-25T01:54:54.886Z,34.12
2023-04-25T01:55:24.960Z,34.11
2023-04-25T01:55:55.046Z,34.10
2023-04-25T01:56:25.132Z,34.09
2023-04-25T01:56:55.226Z,34.05
2023-04-25T01:57:25.284Z,34.05
2023-04-25T01:57:55.372Z,34.12
2023-04-25T01:58:25.439Z,34.04
2023-04-25T01:58:55.518Z,34.09
2023-04-25T01:59:25.597Z,34.07
2023-04-25T01:59:55.696Z,34.13
2023-04-25T02:00:25.782Z,34.05
2023-04-25T02:00:55.865Z,34.05
2023-04-25T02:01:25.963Z,34.05
2023-04-25T02:01:56.133Z,34.01
2023-04-25T02:02:26.140Z,33.97
2023-04-25T02:02:56.222Z,33.99
2023-04-25T02:03:26.268Z,34.00
2023-04-25T02:03:57.123Z,34.01
2023-04-25T02:04:26.416Z,33.97
2023-04-25T02:04:56.427Z,33.98
2023-04-25T02:05:26.510Z,33.97
2023-04-25T02:05:56.584Z,33.98
2023-04-25T02:06:26.660Z,33.96
2023-04-25T02:06:56.744Z,33.97
2023-04-25T02:07:26.828Z,33.95
2023-04-25T02:07:56.905Z,33.92
2023-04-25T02:08:26.979Z,33.91
2023-04-25T02:08:57.074Z,33.86
2023-04-25T02:09:27.083Z,33.92
2023-04-25T02:09:57.148Z,33.91
2023-04-25T02:10:27.186Z,33.92
2023-04-25T02:10:57.223Z,33.94
2023-04-25T02:11:27.260Z,33.94
2023-04-25T02:11:57.298Z,33.97
2023-04-25T02:12:27.400Z,33.97
2023-04-25T02:12:57.440Z,33.96
2023-04-25T02:13:27.466Z,33.97
2023-04-25T02:13:57.489Z,33.98
2023-04-25T02:14:27.541Z,33.99
2023-04-25T02:14:57.576Z,33.96
2023-04-25T02:15:27.649Z,33.96
2023-04-25T02:15:57.748Z,33.94
2023-04-25T02:16:27.777Z,33.96
2023-04-25T02:16:57.881Z,33.92
2023-04-25T02:17:27.838Z,33.96
2023-04-25T02:17:57.939Z,33.91
2023-04-25T02:18:27.953Z,33.94
2023-04-25T02:18:57.993Z,33.95
2023-04-25T02:19:28.070Z,33.95
2023-04-25T02:19:58.161Z,33.96
2023-04-25T02:20:28.258Z,33.92
2023-04-25T02:20:58.336Z,33.98
2023-04-25T02:21:28.410Z,33.99
2023-04-25T02:21:58.495Z,33.97
2023-04-25T02:22:28.579Z,34.02
2023-04-25T02:22:58.663Z,34.03
2023-04-25T02:23:28.744Z,34.04
2023-04-25T02:23:58.826Z,34.09
2023-04-25T02:24:28.933Z,34.12
2023-04-25T02:24:58.920Z,34.12
2023-04-25T02:25:28.994Z,34.12
2023-04-25T02:25:59.069Z,34.11
2023-04-25T02:26:29.156Z,34.04
2023-04-25T02:26:59.238Z,34.12
2023-04-25T02:27:29.316Z,34.09
2023-04-25T02:27:59.416Z,34.17
2023-04-25T02:28:29.469Z,34.16
2023-04-25T02:28:59.552Z,34.12
2023-04-25T02:29:29.632Z,34.13
2023-04-25T02:29:59.725Z,34.13
2023-04-25T02:30:29.796Z,34.14
2023-04-25T02:30:59.896Z,34.14
2023-04-25T02:31:29.979Z,34.09
2023-04-25T02:31:59.945Z,34.09
2023-04-25T02:32:30.054Z,34.10
2023-04-25T02:33:00.255Z,34.14
2023-04-25T02:33:30.142Z,34.13
2023-04-25T02:34:00.221Z,34.10
2023-04-25T02:34:30.305Z,34.14
2023-04-25T02:35:00.430Z,34.08
2023-04-25T02:35:30.483Z,34.14
2023-04-25T02:36:00.580Z,34.13
2023-04-25T02:36:30.644Z,34.14
2023-04-25T02:37:00.734Z,34.10
2023-04-25T02:37:30.790Z,34.12
2023-04-25T02:38:00.868Z,34.17
2023-04-25T02:38:30.953Z,34.14
2023-04-25T02:39:01.040Z,34.17
2023-04-25T02:39:31.122Z,34.17
2023-04-25T02:40:01.232Z,34.16
2023-04-25T02:40:31.285Z,34.17
2023-04-25T02:41:01.368Z,34.20
2023-04-25T02:41:31.457Z,34.19
2023-04-25T02:42:01.546Z,34.17
2023-04-25T02:42:31.620Z,34.13
2023-04-25T02:43:01.725Z,34.13
2023-04-25T02:43:31.794Z,34.14
2023-04-25T02:44:01.884Z,34.17
2023-04-25T02:44:31.954Z,34.21
2023-04-25T02:45:02.064Z,34.18
2023-04-25T02:45:32.184Z,34.19
2023-04-25T02:46:02.188Z,34.15
2023-04-25T02:46:39.106Z,34.19
2023-04-25T02:47:02.381Z,34.13
2023-04-25T02:47:32.604Z,34.18
2023-04-25T02:48:02.504Z,34.14
2023-04-25T02:48:32.470Z,34.17
2023-04-25T02:49:02.569Z,34.17
2023-04-25T02:49:32.641Z,34.17
2023-04-25T02:50:02.739Z,34.14
2023-04-25T02:50:32.812Z,34.19
2023-04-25T02:51:02.919Z,34.12
2023-04-25T02:51:32.977Z,34.13
2023-04-25T02:52:03.058Z,34.06
2023-04-25T02:52:33.137Z,34.09
2023-04-25T02:53:03.227Z,34.08
2023-04-25T02:53:33.303Z,34.05
2023-04-25T02:54:03.385Z,34.08
2023-04-25T02:54:33.458Z,34.08
2023-04-25T02:55:03.555Z,34.04
2023-04-25T02:55:33.636Z,34.02
2023-04-25T02:56:03.717Z,34.04
2023-04-25T02:56:33.790Z,34.03
2023-04-25T02:57:03.880Z,33.95
2023-04-25T02:57:33.973Z,33.98
2023-04-25T02:58:04.081Z,34.01
2023-04-25T02:58:34.124Z,34.02
2023-04-25T02:59:04.200Z,34.04
2023-04-25T02:59:34.299Z,34.05
2023-04-25T03:00:04.391Z,34.02
2023-04-25T03:00:34.511Z,33.97
2023-04-25T03:01:04.531Z,33.98
2023-04-25T03:01:34.597Z,34.00
2023-04-25T03:02:04.682Z,33.98
2023-04-25T03:02:34.880Z,33.94
2023-04-25T03:03:04.917Z,33.94
2023-04-25T03:03:34.949Z,33.94
2023-04-25T03:04:05.060Z,33.98
2023-04-25T03:04:35.169Z,34.00
2023-04-25T03:05:05.174Z,33.97
2023-04-25T03:05:35.250Z,33.95
2023-04-25T03:06:05.316Z,33.95
2023-04-25T03:06:35.404Z,34.00
2023-04-25T03:07:05.477Z,33.97
2023-04-25T03:07:35.560Z,33.97
2023-04-25T03:08:05.646Z,33.98
2023-04-25T03:08:35.722Z,34.00
2023-04-25T03:09:05.791Z,33.98
2023-04-25T03:09:35.829Z,33.91
2023-04-25T03:10:05.879Z,33.99
2023-04-25T03:10:35.906Z,33.99
2023-04-25T03:11:05.956Z,34.04
2023-04-25T03:11:35.983Z,34.04
2023-04-25T03:12:06.039Z,34.04
2023-04-25T03:12:36.070Z,34.04
2023-04-25T03:13:06.195Z,34.00
2023-04-25T03:13:36.200Z,34.04
2023-04-25T03:14:06.229Z,34.00
2023-04-25T03:14:36.286Z,34.02
2023-04-25T03:15:06.310Z,34.02
2023-04-25T03:15:36.329Z,34.04
2023-04-25T03:16:06.440Z,34.09
2023-04-25T03:16:36.522Z,34.07
2023-04-25T03:17:06.570Z,34.05
2023-04-25T03:17:36.616Z,34.08
2023-04-25T03:18:06.701Z,34.08
2023-04-25T03:18:36.702Z,34.01
2023-04-25T03:19:06.734Z,34.01
2023-04-25T03:19:36.817Z,34.05
2023-04-25T03:20:06.912Z,33.97
2023-04-25T03:20:36.989Z,33.99
2023-04-25T03:21:07.071Z,33.98
2023-04-25T03:21:37.142Z,33.95
2023-04-25T03:22:07.229Z,33.95
2023-04-25T03:22:37.314Z,34.03
2023-04-25T03:23:07.390Z,34.02
2023-04-25T03:23:37.474Z,34.00
2023-04-25T03:24:07.561Z,34.00
2023-04-25T03:24:37.639Z,34.03
2023-04-25T03:25:07.716Z,34.02
2023-04-25T03:25:37.791Z,33.98
2023-04-25T03:26:07.873Z,34.01
2023-04-25T03:26:37.953Z,34.01
2023-04-25T03:27:08.040Z,33.95
2023-04-25T03:27:38.122Z,33.99
2023-04-25T03:28:08.196Z,34.00
2023-04-25T03:28:38.317Z,34.03
2023-04-25T03:29:08.365Z,34.03
2023-04-25T03:29:38.458Z,33.95
2023-04-25T03:30:08.540Z,33.97
2023-04-25T03:30:38.608Z,33.95
2023-04-25T03:31:08.712Z,33.98
2023-04-25T03:31:38.815Z,33.92
2023-04-25T03:32:08.914Z,33.96
2023-04-25T03:32:38.940Z,33.95
2023-04-25T03:33:09.046Z,33.89
2023-04-25T03:33:39.015Z,33.95
2023-04-25T03:34:09.097Z,33.92
2023-04-25T03:34:39.179Z,33.94
2023-04-25T03:35:09.261Z,33.95
2023-04-25T03:35:39.355Z,33.99
2023-04-25T03:36:09.426Z,33.98
2023-04-25T03:36:41.581Z,34.00
2023-04-25T03:37:09.535Z,34.00
2023-04-25T03:37:39.619Z,34.10
2023-04-25T03:38:09.699Z,34.08
2023-04-25T03:38:39.790Z,34.11
2023-04-25T03:39:09.866Z,34.10
2023-04-25T03:39:39.948Z,34.08
2023-04-25T03:40:10.035Z,34.11
2023-04-25T03:40:40.123Z,34.08
2023-04-25T03:41:10.203Z,34.08
2023-04-25T03:41:40.277Z,34.08
2023-04-25T03:42:10.360Z,34.08
2023-04-25T03:42:40.439Z,34.10
2023-04-25T03:43:10.552Z,34.09
2023-04-25T03:43:40.574Z,34.10
2023-04-25T03:44:10.631Z,34.12
2023-04-25T03:44:40.720Z,34.13
2023-04-25T03:45:10.817Z,34.13
2023-04-25T03:45:40.917Z,34.11
2023-04-25T03:46:11.007Z,34.17
2023-04-25T03:46:41.012Z,34.17
2023-04-25T03:47:11.097Z,34.19
2023-04-25T03:47:41.205Z,34.22
2023-04-25T03:48:11.188Z,34.23
2023-04-25T03:48:41.265Z,34.20
2023-04-25T03:49:11.344Z,34.19
2023-04-25T03:49:41.430Z,34.18
2023-04-25T03:50:11.533Z,34.23
2023-04-25T03:50:41.594Z,34.25
2023-04-25T03:51:11.676Z,34.20
2023-04-25T03:51:41.768Z,34.22
2023-04-25T03:52:11.857Z,34.20
2023-04-25T03:52:41.943Z,34.11
2023-04-25T03:53:12.019Z,34.11
2023-04-25T03:53:42.101Z,34.15
2023-04-25T03:54:12.189Z,34.10
2023-04-25T03:54:42.273Z,34.04
2023-04-25T03:55:12.353Z,34.13
2023-04-25T03:55:43.654Z,34.03
2023-04-25T03:56:12.438Z,34.03
2023-04-25T03:56:42.519Z,34.05
2023-04-25T03:57:12.607Z,34.06
2023-04-25T03:57:42.687Z,34.00
2023-04-25T03:58:12.786Z,33.99
2023-04-25T03:58:42.798Z,34.05
2023-04-25T03:59:12.903Z,34.00
2023-04-25T03:59:42.958Z,33.97
2023-04-25T04:00:13.037Z,33.94
2023-04-25T04:00:43.127Z,33.95
2023-04-25T04:01:13.205Z,33.88
2023-04-25T04:01:43.276Z,33.95
2023-04-25T04:02:13.441Z,33.90
2023-04-25T04:02:45.561Z,33.85
2023-04-25T04:03:13.811Z,33.82
2023-04-25T04:03:43.790Z,33.89
2023-04-25T04:04:14.115Z,33.85
2023-04-25T04:04:43.893Z,33.79
2023-04-25T04:05:14.000Z,33.76
2023-04-25T04:05:43.726Z,33.61
2023-04-25T04:06:13.800Z,33.65
2023-04-25T04:06:43.899Z,33.62
2023-04-25T04:07:14.006Z,33.42
2023-04-25T04:07:44.079Z,33.60
2023-04-25T04:08:14.156Z,33.73
2023-04-25T04:08:44.238Z,33.73
2023-04-25T04:09:14.288Z,33.80
2023-04-25T04:09:44.355Z,33.92
2023-04-25T04:10:14.368Z,34.03
2023-04-25T04:10:44.409Z,34.16
2023-04-25T04:11:14.447Z,34.20
2023-04-25T04:11:44.564Z,34.31
2023-04-25T04:12:14.603Z,34.33
2023-04-25T04:12:44.633Z,34.40
2023-04-25T04:13:14.668Z,34.48
2023-04-25T04:13:44.708Z,34.51
2023-04-25T04:14:14.769Z,34.59
2023-04-25T04:14:44.794Z,34.65
2023-04-25T04:15:14.823Z,34.73
2023-04-25T04:15:44.890Z,34.73
2023-04-25T04:16:14.974Z,34.77
2023-04-25T04:16:44.983Z,34.83
2023-04-25T04:17:15.032Z,34.93
2023-04-25T04:17:45.099Z,34.89
2023-04-25T04:18:15.136Z,34.94
2023-04-25T04:18:45.170Z,34.97
2023-04-25T04:19:15.246Z,35.05
2023-04-25T04:19:45.311Z,35.06
2023-04-25T04:20:15.393Z,35.14
2023-04-25T04:20:45.476Z,35.17
2023-04-25T04:21:15.535Z,35.24
2023-04-25T04:21:45.623Z,35.27
2023-04-25T04:22:15.712Z,35.33
2023-04-25T04:22:45.795Z,35.32
2023-04-25T04:23:15.872Z,35.38
2023-04-25T04:23:45.948Z,35.41
2023-04-25T04:24:16.043Z,35.40
2023-04-25T04:24:46.126Z,35.39
2023-04-25T04:25:16.209Z,35.52
2023-04-25T04:25:46.285Z,35.63
2023-04-25T04:26:16.366Z,35.76
2023-04-25T04:26:46.462Z,35.69
2023-04-25T04:27:16.539Z,35.74
2023-04-25T04:27:46.607Z,35.65
2023-04-25T04:28:16.694Z,35.76
2023-04-25T04:28:46.782Z,35.67
2023-04-25T04:29:16.916Z,35.84
2023-04-25T04:29:46.972Z,35.85
2023-04-25T04:30:17.039Z,36.00
2023-04-25T04:30:47.135Z,35.99
2023-04-25T04:31:17.261Z,36.26
2023-04-25T04:31:47.237Z,36.16
2023-04-25T04:32:17.336Z,36.28
2023-04-25T04:32:48.898Z,36.33
2023-04-25T04:33:17.476Z,36.33
2023-04-25T04:33:47.562Z,36.49
2023-04-25T04:34:17.650Z,36.66
2023-04-25T04:34:47.734Z,36.70
2023-04-25T04:35:17.824Z,36.65
2023-04-25T04:35:47.913Z,36.74
2023-04-25T04:36:17.993Z,36.70
2023-04-25T04:36:48.083Z,36.69
2023-04-25T04:37:18.149Z,36.68
2023-04-25T04:37:48.230Z,36.76
2023-04-25T04:38:18.317Z,36.76
2023-04-25T04:38:48.390Z,36.85
2023-04-25T04:39:18.484Z,36.72
2023-04-25T04:39:48.564Z,36.81
2023-04-25T04:40:18.652Z,36.82
2023-04-25T04:40:48.724Z,36.73
2023-04-25T04:41:18.802Z,36.74
2023-04-25T04:41:48.910Z,36.81
2023-04-25T04:42:18.974Z,36.84
2023-04-25T04:42:49.067Z,36.97
2023-04-25T04:43:19.140Z,36.91
2023-04-25T04:43:49.435Z,36.90
2023-04-25T04:44:19.344Z,36.89
2023-04-25T04:44:49.398Z,36.90
2023-04-25T04:45:19.478Z,36.89
2023-04-25T04:45:49.567Z,36.95
2023-04-25T04:46:19.712Z,36.85
2023-04-25T04:46:49.835Z,36.84
2023-04-25T04:47:19.791Z,36.79
2023-04-25T04:47:49.976Z,36.83
2023-04-25T04:48:19.935Z,36.80
2023-04-25T04:48:50.026Z,36.73
2023-04-25T04:49:20.125Z,36.65
2023-04-25T04:49:50.216Z,36.77
2023-04-25T04:50:20.298Z,36.81
2023-04-25T04:50:50.372Z,36.74
2023-04-25T04:51:20.462Z,36.76
2023-04-25T04:51:50.556Z,36.86
2023-04-25T04:52:20.634Z,36.81
2023-04-25T04:52:50.713Z,36.73
2023-04-25T04:53:20.784Z,36.74
2023-04-25T04:53:51.046Z,36.76
2023-04-25T04:54:20.939Z,36.73
2023-04-25T04:54:51.020Z,36.80
2023-04-25T04:55:21.092Z,36.73
2023-04-25T04:55:51.177Z,36.76
2023-04-25T04:56:21.276Z,36.63
2023-04-25T04:56:51.357Z,36.65
2023-04-25T04:57:21.430Z,36.68
2023-04-25T04:57:51.513Z,36.69
2023-04-25T04:58:21.596Z,36.62
2023-04-25T04:58:51.681Z,36.63
2023-04-25T04:59:21.795Z,36.60
2023-04-25T04:59:51.853Z,36.66
2023-04-25T05:00:21.985Z,36.63
2023-04-25T05:00:52.121Z,36.46
2023-04-25T05:01:22.212Z,36.38
2023-04-25T05:01:52.091Z,36.20
2023-04-25T05:02:22.230Z,35.77
2023-04-25T05:02:52.304Z,35.25
2023-04-25T05:03:22.468Z,35.28
2023-04-25T05:03:52.670Z,35.07
2023-04-25T05:04:22.464Z,34.84
2023-04-25T05:04:52.663Z,34.63
2023-04-25T05:05:22.464Z,34.55
2023-04-25T05:05:52.551Z,34.55
2023-04-25T05:06:22.632Z,34.76
2023-04-25T05:06:52.711Z,34.60
2023-04-25T05:07:22.800Z,34.48
2023-04-25T05:07:52.877Z,34.65
2023-04-25T05:08:22.958Z,34.72
2023-04-25T05:08:53.048Z,34.67
2023-04-25T05:09:23.084Z,34.47
2023-04-25T05:09:53.132Z,35.29
2023-04-25T05:10:23.168Z,35.30
2023-04-25T05:10:53.210Z,35.04
2023-04-25T05:11:23.252Z,35.02
2023-04-25T05:11:53.289Z,35.03
2023-04-25T05:12:26.033Z,34.85
2023-04-25T05:12:53.358Z,34.93
2023-04-25T05:13:53.816Z,35.14
2023-04-25T05:14:23.500Z,35.07
2023-04-25T05:14:53.561Z,34.90
2023-04-25T05:15:23.575Z,35.03
2023-04-25T05:15:53.639Z,33.88
2023-04-25T05:16:23.689Z,34.45
2023-04-25T05:16:53.806Z,34.54
2023-04-25T05:17:23.812Z,35.01
2023-04-25T05:17:53.870Z,35.02
2023-04-25T05:18:23.961Z,35.06
2023-04-25T05:18:53.990Z,35.02
2023-04-25T05:19:24.070Z,35.06
2023-04-25T05:19:54.157Z,35.00
2023-04-25T05:20:24.270Z,34.85
2023-04-25T05:20:54.368Z,34.85
2023-04-25T05:21:24.430Z,34.87
2023-04-25T05:21:54.515Z,34.79
2023-04-25T05:22:24.609Z,34.76
2023-04-25T05:22:54.690Z,34.70
2023-04-25T05:23:24.767Z,34.79
2023-04-25T05:23:54.870Z,34.82
2023-04-25T05:24:24.954Z,34.74
2023-04-25T05:24:56.221Z,34.89
2023-04-25T05:25:25.099Z,34.88
2023-04-25T05:25:55.180Z,34.82
2023-04-25T05:26:25.265Z,35.03
2023-04-25T05:26:55.341Z,35.05
2023-04-25T05:27:25.417Z,35.12
2023-04-25T05:27:55.513Z,35.16
2023-04-25T05:28:25.570Z,35.01
2023-04-25T05:28:55.695Z,34.67
2023-04-25T05:29:25.676Z,34.95
2023-04-25T05:29:55.750Z,35.35
2023-04-25T05:30:25.852Z,35.58
2023-04-25T05:30:55.917Z,35.69
2023-04-25T05:31:26.036Z,35.84
2023-04-25T05:31:56.078Z,35.96
2023-04-25T05:32:26.210Z,36.08
2023-04-25T05:32:56.081Z,36.26
2023-04-25T05:33:26.055Z,36.36
2023-04-25T05:33:56.172Z,36.42
2023-04-25T05:34:26.250Z,36.51
2023-04-25T05:34:56.394Z,36.47
2023-04-25T05:35:26.492Z,36.48
2023-04-25T05:35:56.491Z,36.55
2023-04-25T05:36:26.578Z,36.54
2023-04-25T05:36:56.648Z,36.54
2023-04-25T05:37:26.730Z,36.55
2023-04-25T05:37:56.817Z,36.56
2023-04-25T05:38:26.912Z,36.65
2023-04-25T05:38:57.011Z,36.62
2023-04-25T05:39:27.095Z,36.55
2023-04-25T05:39:57.175Z,36.58
2023-04-25T05:40:27.266Z,36.58
2023-04-25T05:40:57.349Z,36.56
2023-04-25T05:41:27.434Z,36.59
2023-04-25T05:41:57.503Z,36.56
2023-04-25T05:42:27.602Z,36.54
2023-04-25T05:42:57.683Z,36.59
2023-04-25T05:43:27.753Z,36.56
2023-04-25T05:43:58.533Z,36.48
2023-04-25T05:44:27.943Z,36.55
2023-04-25T05:44:58.031Z,36.52
2023-04-25T05:45:28.140Z,36.55
2023-04-25T05:45:58.245Z,36.53
2023-04-25T05:46:28.274Z,36.50
2023-04-25T05:46:58.267Z,36.50
2023-04-25T05:47:28.362Z,36.47
2023-04-25T05:47:58.474Z,36.37
2023-04-25T05:48:28.533Z,36.40
2023-04-25T05:48:58.699Z,36.41
2023-04-25T05:49:28.703Z,36.47
2023-04-25T05:49:58.790Z,36.36
2023-04-25T05:50:28.882Z,36.31
2023-04-25T05:50:58.942Z,36.36
2023-04-25T05:51:29.038Z,36.36
2023-04-25T05:51:59.114Z,36.22
2023-04-25T05:52:29.212Z,36.27
2023-04-25T05:52:59.280Z,36.30
2023-04-25T05:53:29.365Z,36.29
2023-04-25T05:53:59.470Z,36.30
2023-04-25T05:54:29.555Z,36.27
2023-04-25T05:54:59.644Z,36.45
2023-04-25T05:55:29.725Z,36.39
2023-04-25T05:55:59.814Z,36.33
2023-04-25T05:56:29.904Z,36.31
2023-04-25T05:56:59.990Z,36.37
2023-04-25T05:57:30.054Z,36.37
2023-04-25T05:58:00.174Z,36.45
2023-04-25T05:58:30.132Z,36.35
2023-04-25T05:59:00.249Z,36.34
2023-04-25T05:59:30.304Z,36.33
2023-04-25T06:00:00.405Z,36.37
2023-04-25T06:00:30.551Z,36.40
2023-04-25T06:01:00.557Z,36.30
2023-04-25T06:01:30.633Z,36.33
2023-04-25T06:02:00.726Z,36.30
2023-04-25T06:02:30.905Z,36.33
2023-04-25T06:03:00.906Z,36.37
2023-04-25T06:03:30.983Z,36.37
2023-04-25T06:04:01.050Z,36.31
2023-04-25T06:04:31.127Z,36.32
2023-04-25T06:05:01.205Z,36.40
2023-04-25T06:05:31.155Z,36.33
2023-04-25T06:06:01.036Z,36.52
2023-04-25T06:06:31.119Z,36.57
2023-04-25T06:07:01.214Z,36.46
2023-04-25T06:07:31.302Z,36.38
2023-04-25T06:08:01.398Z,36.25
2023-04-25T06:08:31.471Z,36.53
2023-04-25T06:09:01.601Z,36.46
2023-04-25T06:09:31.614Z,36.27
2023-04-25T06:10:01.685Z,36.39
2023-04-25T06:10:31.746Z,36.34
2023-04-25T06:11:01.777Z,36.36
2023-04-25T06:11:31.821Z,36.37
2023-04-25T06:12:01.854Z,36.45
2023-04-25T06:12:31.906Z,36.45
2023-04-25T06:13:01.937Z,36.44
2023-04-25T06:13:31.982Z,36.45
2023-04-25T06:14:02.015Z,36.46
2023-04-25T06:14:32.067Z,36.40
2023-04-25T06:15:02.604Z,36.27
2023-04-25T06:15:32.134Z,36.42
2023-04-25T06:16:02.249Z,36.29
2023-04-25T06:16:32.362Z,36.36
2023-04-25T06:17:02.252Z,36.46
2023-04-25T06:17:32.308Z,36.45
2023-04-25T06:18:02.429Z,36.28
2023-04-25T06:18:32.362Z,36.22
2023-04-25T06:19:02.418Z,36.23
2023-04-25T06:19:32.504Z,36.30
2023-04-25T06:20:03.620Z,36.24
2023-04-25T06:20:32.615Z,36.20
2023-04-25T06:21:02.697Z,36.20
2023-04-25T06:21:32.788Z,36.22
2023-04-25T06:22:02.865Z,36.22
2023-04-25T06:22:32.945Z,36.24
2023-04-25T06:23:02.966Z,36.29
2023-04-25T06:23:33.055Z,36.35
2023-04-25T06:24:03.183Z,36.25
2023-04-25T06:24:33.145Z,36.27
2023-04-25T06:25:03.237Z,36.24
2023-04-25T06:25:33.334Z,36.28
2023-04-25T06:26:03.416Z,36.27
2023-04-25T06:26:33.493Z,36.25
2023-04-25T06:27:03.587Z,36.17
2023-04-25T06:27:33.674Z,36.22
2023-04-25T06:28:03.756Z,36.20
2023-04-25T06:28:33.856Z,36.20